Main page
METAR-TAF:

METAR-TAF

Airports :

Abu Simbel Airport

Abu Simbel, Egypt

latitude: 22-22-33N, longitude: 31-36-42E, elevation: 188 m

Current weather observation

The report was made 1 hour and 7 minutes ago, at 11:00 UTC
Wind 6 kt from the East/Northeast
Temperature 41°C
Humidity 15%
Pressure 1007 hPa
Visibility 10 km or more
no clouds below 1500 m and no cumulonimbus

METAR: HEBL 121100Z 07006KT CAVOK 41/09 Q1007

Time: 14:07 (12:07 UTC)

Forecast

The report was made 1 hour and 7 minutes ago, at 11:00 UTC
Forecast valid from 12 at 12 UTC to 13 at 18 UTC
Wind 15 kt from the North/Northeast
Visibility 10 km or more
no clouds below 1500 m and no cumulonimbus

TAF: HEBL 121100Z 1212/1318 03015KT CAVOK

Weather observations and forecasts of more than 4000 airports (METAR and TAF reports).

The available stations are represented by yellow and red dots on the map.

Hover mouse over dot to see the name of the station.

Then click to see weather observations and forecasts.

To change the map : click on the green buttons with a black cross to zoom in, on the green button with a dash to zoom out, or on the green arrows for adjacent maps.


METAR-TAF: